sensor_id;sensor_type;location;lat;lon;timestamp;temperature;humidity
46816;DHT22;32787;53.316;8.670;2023-06-24T00:01:26;15.70;89.20
46816;DHT22;32787;53.316;8.670;2023-06-24T00:03:52;15.50;89.10
46816;DHT22;32787;53.316;8.670;2023-06-24T00:06:22;15.50;89.20
46816;DHT22;32787;53.316;8.670;2023-06-24T00:08:52;15.40;89.20
46816;DHT22;32787;53.316;8.670;2023-06-24T00:11:18;15.40;89.30
46816;DHT22;32787;53.316;8.670;2023-06-24T00:13:44;15.40;89.40
46816;DHT22;32787;53.316;8.670;2023-06-24T00:16:10;15.50;89.40
46816;DHT22;32787;53.316;8.670;2023-06-24T00:18:37;15.50;89.30
46816;DHT22;32787;53.316;8.670;2023-06-24T00:21:06;15.50;89.30
46816;DHT22;32787;53.316;8.670;2023-06-24T00:23:32;15.30;89.50
46816;DHT22;32787;53.316;8.670;2023-06-24T00:26:01;15.40;89.60
46816;DHT22;32787;53.316;8.670;2023-06-24T00:28:27;15.30;89.50
46816;DHT22;32787;53.316;8.670;2023-06-24T00:30:52;15.20;89.50
46816;DHT22;32787;53.316;8.670;2023-06-24T00:33:18;15.10;89.70
46816;DHT22;32787;53.316;8.670;2023-06-24T00:35:47;15.00;89.80
46816;DHT22;32787;53.316;8.670;2023-06-24T00:38:13;15.10;89.80
46816;DHT22;32787;53.316;8.670;2023-06-24T00:40:39;15.00;89.90
46816;DHT22;32787;53.316;8.670;2023-06-24T00:43:05;14.80;90.10
46816;DHT22;32787;53.316;8.670;2023-06-24T00:45:32;14.80;90.20
46816;DHT22;32787;53.316;8.670;2023-06-24T00:48:00;14.80;90.50
46816;DHT22;32787;53.316;8.670;2023-06-24T00:50:26;14.80;90.50
46816;DHT22;32787;53.316;8.670;2023-06-24T00:52:52;14.80;90.40
46816;DHT22;32787;53.316;8.670;2023-06-24T00:55:18;14.80;90.40
46816;DHT22;32787;53.316;8.670;2023-06-24T00:57:47;14.80;90.40
46816;DHT22;32787;53.316;8.670;2023-06-24T01:00:17;14.80;90.20
46816;DHT22;32787;53.316;8.670;2023-06-24T01:02:44;15.10;90.30
46816;DHT22;32787;53.316;8.670;2023-06-24T01:05:13;15.00;89.70
46816;DHT22;32787;53.316;8.670;2023-06-24T01:07:40;15.00;89.90
46816;DHT22;32787;53.316;8.670;2023-06-24T01:10:07;14.90;89.90
46816;DHT22;32787;53.316;8.670;2023-06-24T01:12:34;14.80;89.90
46816;DHT22;32787;53.316;8.670;2023-06-24T01:15:01;14.70;90.00
46816;DHT22;32787;53.316;8.670;2023-06-24T01:17:35;14.60;90.20
46816;DHT22;32787;53.316;8.670;2023-06-24T01:20:10;14.50;90.30
46816;DHT22;32787;53.316;8.670;2023-06-24T01:34:00;14.40;90.50
46816;DHT22;32787;53.316;8.670;2023-06-24T01:36:28;14.30;90.60
46816;DHT22;32787;53.316;8.670;2023-06-24T01:39:02;14.20;90.70
46816;DHT22;32787;53.316;8.670;2023-06-24T01:41:34;14.30;90.90
46816;DHT22;32787;53.316;8.670;2023-06-24T01:44:01;14.30;90.90
46816;DHT22;32787;53.316;8.670;2023-06-24T01:46:29;14.50;90.50
46816;DHT22;32787;53.316;8.670;2023-06-24T01:48:59;14.40;90.40
46816;DHT22;32787;53.316;8.670;2023-06-24T01:51:27;14.40;90.50
46816;DHT22;32787;53.316;8.670;2023-06-24T01:54:02;14.30;90.50
46816;DHT22;32787;53.316;8.670;2023-06-24T01:56:29;14.30;90.70
46816;DHT22;32787;53.316;8.670;2023-06-24T01:58:57;14.30;90.70
46816;DHT22;32787;53.316;8.670;2023-06-24T02:01:24;14.30;90.80
46816;DHT22;32787;53.316;8.670;2023-06-24T02:03:52;14.30;90.60
46816;DHT22;32787;53.316;8.670;2023-06-24T02:06:19;14.30;90.50
46816;DHT22;32787;53.316;8.670;2023-06-24T02:08:48;14.30;90.60
46816;DHT22;32787;53.316;8.670;2023-06-24T02:11:15;14.30;90.40
46816;DHT22;32787;53.316;8.670;2023-06-24T02:13:43;14.30;90.60
46816;DHT22;32787;53.316;8.670;2023-06-24T02:16:10;14.40;90.60
46816;DHT22;32787;53.316;8.670;2023-06-24T02:18:38;14.60;90.10
46816;DHT22;32787;53.316;8.670;2023-06-24T02:21:08;14.60;89.90
46816;DHT22;32787;53.316;8.670;2023-06-24T02:23:35;14.70;89.30
46816;DHT22;32787;53.316;8.670;2023-06-24T02:26:02;14.40;89.30
46816;DHT22;32787;53.316;8.670;2023-06-24T02:28:29;14.30;89.70
46816;DHT22;32787;53.316;8.670;2023-06-24T02:30:57;14.20;89.90
46816;DHT22;32787;53.316;8.670;2023-06-24T02:33:23;14.10;90.10
46816;DHT22;32787;53.316;8.670;2023-06-24T02:35:49;14.10;90.40
46816;DHT22;32787;53.316;8.670;2023-06-24T02:38:15;14.10;90.20
46816;DHT22;32787;53.316;8.670;2023-06-24T02:40:43;14.30;90.10
46816;DHT22;32787;53.316;8.670;2023-06-24T02:43:09;14.40;89.90
46816;DHT22;32787;53.316;8.670;2023-06-24T02:45:35;14.30;89.70
46816;DHT22;32787;53.316;8.670;2023-06-24T02:48:01;14.00;89.90
46816;DHT22;32787;53.316;8.670;2023-06-24T02:50:28;13.90;90.10
46816;DHT22;32787;53.316;8.670;2023-06-24T02:52:54;13.80;90.50
46816;DHT22;32787;53.316;8.670;2023-06-24T02:55:21;13.80;90.40
46816;DHT22;32787;53.316;8.670;2023-06-24T02:57:47;13.90;90.70
46816;DHT22;32787;53.316;8.670;2023-06-24T03:00:13;14.00;90.10
46816;DHT22;32787;53.316;8.670;2023-06-24T03:02:41;13.90;90.30
46816;DHT22;32787;53.316;8.670;2023-06-24T03:05:09;13.90;90.30
46816;DHT22;32787;53.316;8.670;2023-06-24T03:07:36;13.80;90.30
46816;DHT22;32787;53.316;8.670;2023-06-24T03:10:05;13.60;90.30
46816;DHT22;32787;53.316;8.670;2023-06-24T03:12:32;13.60;90.60
46816;DHT22;32787;53.316;8.670;2023-06-24T03:14:57;13.60;90.80
46816;DHT22;32787;53.316;8.670;2023-06-24T03:17:23;13.60;90.90
46816;DHT22;32787;53.316;8.670;2023-06-24T03:19:50;13.50;90.70
46816;DHT22;32787;53.316;8.670;2023-06-24T03:22:16;13.50;90.80
46816;DHT22;32787;53.316;8.670;2023-06-24T03:24:42;13.50;90.80
46816;DHT22;32787;53.316;8.670;2023-06-24T03:27:08;13.50;90.80
46816;DHT22;32787;53.316;8.670;2023-06-24T03:29:34;13.40;90.60
46816;DHT22;32787;53.316;8.670;2023-06-24T03:32:00;13.50;90.90
46816;DHT22;32787;53.316;8.670;2023-06-24T03:34:25;13.70;90.70
46816;DHT22;32787;53.316;8.670;2023-06-24T03:36:52;13.80;90.50
46816;DHT22;32787;53.316;8.670;2023-06-24T03:39:19;13.80;90.60
46816;DHT22;32787;53.316;8.670;2023-06-24T03:41:46;13.80;90.60
46816;DHT22;32787;53.316;8.670;2023-06-24T03:44:11;13.80;90.70
46816;DHT22;32787;53.316;8.670;2023-06-24T03:46:37;13.80;90.70
46816;DHT22;32787;53.316;8.670;2023-06-24T03:49:03;13.80;91.00
46816;DHT22;32787;53.316;8.670;2023-06-24T03:51:29;13.90;91.00
46816;DHT22;32787;53.316;8.670;2023-06-24T03:53:54;14.10;90.90
46816;DHT22;32787;53.316;8.670;2023-06-24T03:56:20;14.10;90.80
46816;DHT22;32787;53.316;8.670;2023-06-24T03:58:46;14.30;90.50
46816;DHT22;32787;53.316;8.670;2023-06-24T04:01:11;14.30;90.30
46816;DHT22;32787;53.316;8.670;2023-06-24T04:03:37;14.10;90.30
46816;DHT22;32787;53.316;8.670;2023-06-24T04:06:03;14.00;90.50
46816;DHT22;32787;53.316;8.670;2023-06-24T04:08:28;13.90;90.70
46816;DHT22;32787;53.316;8.670;2023-06-24T04:10:57;13.90;90.90
46816;DHT22;32787;53.316;8.670;2023-06-24T04:13:25;13.80;91.00
46816;DHT22;32787;53.316;8.670;2023-06-24T04:15:51;13.80;91.40
46816;DHT22;32787;53.316;8.670;2023-06-24T04:18:18;13.90;91.10
46816;DHT22;32787;53.316;8.670;2023-06-24T04:20:44;13.90;91.20
46816;DHT22;32787;53.316;8.670;2023-06-24T04:23:09;13.90;91.30
46816;DHT22;32787;53.316;8.670;2023-06-24T04:25:36;13.90;91.20
46816;DHT22;32787;53.316;8.670;2023-06-24T04:28:03;13.90;91.20
46816;DHT22;32787;53.316;8.670;2023-06-24T04:30:30;14.00;91.40
46816;DHT22;32787;53.316;8.670;2023-06-24T04:32:56;14.00;91.20
46816;DHT22;32787;53.316;8.670;2023-06-24T04:35:21;14.00;91.30
46816;DHT22;32787;53.316;8.670;2023-06-24T04:37:47;14.10;91.50
46816;DHT22;32787;53.316;8.670;2023-06-24T04:40:16;14.10;91.50
46816;DHT22;32787;53.316;8.670;2023-06-24T04:42:42;14.30;91.50
46816;DHT22;32787;53.316;8.670;2023-06-24T04:45:08;14.40;91.50
46816;DHT22;32787;53.316;8.670;2023-06-24T04:47:33;14.50;91.40
46816;DHT22;32787;53.316;8.670;2023-06-24T04:49:59;14.60;91.30
46816;DHT22;32787;53.316;8.670;2023-06-24T04:52:25;14.70;91.20
46816;DHT22;32787;53.316;8.670;2023-06-24T04:54:50;14.70;91.20
46816;DHT22;32787;53.316;8.670;2023-06-24T04:57:36;14.80;91.30
46816;DHT22;32787;53.316;8.670;2023-06-24T05:00:02;14.80;91.30
46816;DHT22;32787;53.316;8.670;2023-06-24T05:02:28;14.90;91.30
46816;DHT22;32787;53.316;8.670;2023-06-24T05:04:54;15.10;91.40
46816;DHT22;32787;53.316;8.670;2023-06-24T05:07:20;15.30;91.10
46816;DHT22;32787;53.316;8.670;2023-06-24T05:09:47;15.40;91.00
46816;DHT22;32787;53.316;8.670;2023-06-24T05:12:13;15.40;90.60
46816;DHT22;32787;53.316;8.670;2023-06-24T05:14:38;15.30;90.80
46816;DHT22;32787;53.316;8.670;2023-06-24T05:17:04;15.50;91.10
46816;DHT22;32787;53.316;8.670;2023-06-24T05:19:31;15.90;90.20
46816;DHT22;32787;53.316;8.670;2023-06-24T05:21:56;15.80;89.90
46816;DHT22;32787;53.316;8.670;2023-06-24T05:24:22;15.80;90.40
46816;DHT22;32787;53.316;8.670;2023-06-24T05:26:49;15.60;90.50
46816;DHT22;32787;53.316;8.670;2023-06-24T05:29:15;15.70;91.00
46816;DHT22;32787;53.316;8.670;2023-06-24T05:31:42;15.80;91.00
46816;DHT22;32787;53.316;8.670;2023-06-24T05:34:07;15.80;90.90
46816;DHT22;32787;53.316;8.670;2023-06-24T05:36:33;15.90;91.10
46816;DHT22;32787;53.316;8.670;2023-06-24T05:38:59;16.10;91.00
46816;DHT22;32787;53.316;8.670;2023-06-24T05:41:25;16.30;90.60
46816;DHT22;32787;53.316;8.670;2023-06-24T05:44:04;16.20;90.30
46816;DHT22;32787;53.316;8.670;2023-06-24T05:46:30;16.30;90.60
46816;DHT22;32787;53.316;8.670;2023-06-24T05:48:56;16.40;90.80
46816;DHT22;32787;53.316;8.670;2023-06-24T05:51:21;16.40;90.50
46816;DHT22;32787;53.316;8.670;2023-06-24T05:53:47;16.50;90.60
46816;DHT22;32787;53.316;8.670;2023-06-24T05:56:13;16.60;90.80
46816;DHT22;32787;53.316;8.670;2023-06-24T05:58:38;16.70;90.70
46816;DHT22;32787;53.316;8.670;2023-06-24T06:01:04;16.70;90.20
46816;DHT22;32787;53.316;8.670;2023-06-24T06:03:31;16.80;90.30
46816;DHT22;32787;53.316;8.670;2023-06-24T06:05:56;16.80;90.30
46816;DHT22;32787;53.316;8.670;2023-06-24T06:08:22;16.80;90.50
46816;DHT22;32787;53.316;8.670;2023-06-24T06:10:48;16.80;90.60
46816;DHT22;32787;53.316;8.670;2023-06-24T06:13:13;17.20;90.00
46816;DHT22;32787;53.316;8.670;2023-06-24T06:15:39;17.00;89.70
46816;DHT22;32787;53.316;8.670;2023-06-24T06:18:04;17.10;90.10
46816;DHT22;32787;53.316;8.670;2023-06-24T06:20:30;17.10;89.10
46816;DHT22;32787;53.316;8.670;2023-06-24T06:22:56;17.10;89.30
46816;DHT22;32787;53.316;8.670;2023-06-24T06:25:21;17.20;89.70
46816;DHT22;32787;53.316;8.670;2023-06-24T06:27:47;17.50;88.80
46816;DHT22;32787;53.316;8.670;2023-06-24T06:30:13;17.40;88.70
46816;DHT22;32787;53.316;8.670;2023-06-24T06:32:39;17.60;88.80
46816;DHT22;32787;53.316;8.670;2023-06-24T06:35:05;17.50;88.60
46816;DHT22;32787;53.316;8.670;2023-06-24T06:37:31;17.80;88.30
46816;DHT22;32787;53.316;8.670;2023-06-24T06:39:56;17.90;85.60
46816;DHT22;32787;53.316;8.670;2023-06-24T06:42:22;18.00;85.20
46816;DHT22;32787;53.316;8.670;2023-06-24T06:44:47;17.90;85.60
46816;DHT22;32787;53.316;8.670;2023-06-24T06:47:13;17.80;86.00
46816;DHT22;32787;53.316;8.670;2023-06-24T06:49:39;17.80;86.70
46816;DHT22;32787;53.316;8.670;2023-06-24T06:52:05;17.80;87.30
46816;DHT22;32787;53.316;8.670;2023-06-24T06:54:31;17.90;87.20
46816;DHT22;32787;53.316;8.670;2023-06-24T06:57:03;18.00;86.50
46816;DHT22;32787;53.316;8.670;2023-06-24T06:59:30;18.20;86.10
46816;DHT22;32787;53.316;8.670;2023-06-24T07:01:56;18.20;86.50
46816;DHT22;32787;53.316;8.670;2023-06-24T07:04:22;18.30;85.50
46816;DHT22;32787;53.316;8.670;2023-06-24T07:06:48;18.40;83.70
46816;DHT22;32787;53.316;8.670;2023-06-24T07:09:13;18.40;83.80
46816;DHT22;32787;53.316;8.670;2023-06-24T07:11:41;18.70;81.50
46816;DHT22;32787;53.316;8.670;2023-06-24T07:14:06;18.70;82.20
46816;DHT22;32787;53.316;8.670;2023-06-24T07:16:32;18.60;81.90
46816;DHT22;32787;53.316;8.670;2023-06-24T07:18:57;18.50;82.50
46816;DHT22;32787;53.316;8.670;2023-06-24T07:21:23;18.80;81.60
46816;DHT22;32787;53.316;8.670;2023-06-24T07:23:49;19.10;80.20
46816;DHT22;32787;53.316;8.670;2023-06-24T07:26:15;19.30;77.70
46816;DHT22;32787;53.316;8.670;2023-06-24T07:28:40;19.10;77.80
46816;DHT22;32787;53.316;8.670;2023-06-24T07:31:06;19.10;78.90
46816;DHT22;32787;53.316;8.670;2023-06-24T07:33:32;19.10;77.50
46816;DHT22;32787;53.316;8.670;2023-06-24T07:35:57;19.10;79.20
46816;DHT22;32787;53.316;8.670;2023-06-24T07:38:23;19.20;79.50
46816;DHT22;32787;53.316;8.670;2023-06-24T07:40:49;19.50;78.40
46816;DHT22;32787;53.316;8.670;2023-06-24T07:43:14;19.50;78.60
46816;DHT22;32787;53.316;8.670;2023-06-24T07:45:40;19.60;76.90
46816;DHT22;32787;53.316;8.670;2023-06-24T07:48:06;19.50;76.80
46816;DHT22;32787;53.316;8.670;2023-06-24T07:50:33;19.40;77.00
46816;DHT22;32787;53.316;8.670;2023-06-24T07:52:59;19.40;77.50
46816;DHT22;32787;53.316;8.670;2023-06-24T07:55:25;19.50;76.90
46816;DHT22;32787;53.316;8.670;2023-06-24T07:57:51;20.10;73.10
46816;DHT22;32787;53.316;8.670;2023-06-24T08:00:17;20.20;72.90
46816;DHT22;32787;53.316;8.670;2023-06-24T08:02:43;20.30;71.30
46816;DHT22;32787;53.316;8.670;2023-06-24T08:05:08;20.10;73.10
46816;DHT22;32787;53.316;8.670;2023-06-24T08:07:35;20.40;73.70
46816;DHT22;32787;53.316;8.670;2023-06-24T08:10:01;20.40;74.10
46816;DHT22;32787;53.316;8.670;2023-06-24T08:12:27;20.70;73.90
46816;DHT22;32787;53.316;8.670;2023-06-24T08:14:52;21.00;70.60
46816;DHT22;32787;53.316;8.670;2023-06-24T08:17:18;21.10;69.00
46816;DHT22;32787;53.316;8.670;2023-06-24T08:19:44;21.30;70.20
46816;DHT22;32787;53.316;8.670;2023-06-24T08:22:09;21.40;69.10
46816;DHT22;32787;53.316;8.670;2023-06-24T08:24:36;21.30;69.30
46816;DHT22;32787;53.316;8.670;2023-06-24T08:27:02;21.20;68.30
46816;DHT22;32787;53.316;8.670;2023-06-24T08:29:28;21.50;67.30
46816;DHT22;32787;53.316;8.670;2023-06-24T08:31:53;21.60;67.60
46816;DHT22;32787;53.316;8.670;2023-06-24T08:34:19;21.60;66.50
46816;DHT22;32787;53.316;8.670;2023-06-24T08:36:44;21.90;65.90
46816;DHT22;32787;53.316;8.670;2023-06-24T08:39:10;21.80;66.20
46816;DHT22;32787;53.316;8.670;2023-06-24T08:41:36;21.90;66.80
46816;DHT22;32787;53.316;8.670;2023-06-24T08:44:02;21.80;66.20
46816;DHT22;32787;53.316;8.670;2023-06-24T08:46:28;22.30;64.40
46816;DHT22;32787;53.316;8.670;2023-06-24T08:51:41;22.20;66.50
46816;DHT22;32787;53.316;8.670;2023-06-24T08:54:09;22.00;62.40
46816;DHT22;32787;53.316;8.670;2023-06-24T08:56:37;21.90;65.30
46816;DHT22;32787;53.316;8.670;2023-06-24T08:59:06;22.30;65.60
46816;DHT22;32787;53.316;8.670;2023-06-24T09:01:31;22.40;62.40
46816;DHT22;32787;53.316;8.670;2023-06-24T09:03:57;22.40;64.70
46816;DHT22;32787;53.316;8.670;2023-06-24T09:06:23;22.50;63.50
46816;DHT22;32787;53.316;8.670;2023-06-24T09:08:55;22.60;61.80
46816;DHT22;32787;53.316;8.670;2023-06-24T09:11:25;22.20;64.10
46816;DHT22;32787;53.316;8.670;2023-06-24T09:13:56;22.40;62.00
46816;DHT22;32787;53.316;8.670;2023-06-24T09:16:22;22.20;64.50
46816;DHT22;32787;53.316;8.670;2023-06-24T09:18:49;22.10;65.30
46816;DHT22;32787;53.316;8.670;2023-06-24T09:21:25;21.80;65.30
46816;DHT22;32787;53.316;8.670;2023-06-24T09:23:55;22.00;66.50
46816;DHT22;32787;53.316;8.670;2023-06-24T09:26:23;22.10;65.30
46816;DHT22;32787;53.316;8.670;2023-06-24T09:28:49;22.20;65.70
46816;DHT22;32787;53.316;8.670;2023-06-24T09:31:15;22.50;63.30
46816;DHT22;32787;53.316;8.670;2023-06-24T09:33:41;22.50;61.50
46816;DHT22;32787;53.316;8.670;2023-06-24T09:36:06;22.60;62.70
46816;DHT22;32787;53.316;8.670;2023-06-24T09:38:37;22.30;63.90
46816;DHT22;32787;53.316;8.670;2023-06-24T09:41:06;22.50;63.40
46816;DHT22;32787;53.316;8.670;2023-06-24T09:43:35;22.60;61.50
46816;DHT22;32787;53.316;8.670;2023-06-24T09:46:03;22.80;61.50
46816;DHT22;32787;53.316;8.670;2023-06-24T09:48:28;22.80;60.20
46816;DHT22;32787;53.316;8.670;2023-06-24T09:51:03;22.60;61.30
46816;DHT22;32787;53.316;8.670;2023-06-24T09:53:33;22.50;61.60
46816;DHT22;32787;53.316;8.670;2023-06-24T09:56:04;22.40;63.00
46816;DHT22;32787;53.316;8.670;2023-06-24T09:58:36;22.50;64.60
46816;DHT22;32787;53.316;8.670;2023-06-24T10:01:03;22.80;62.40
46816;DHT22;32787;53.316;8.670;2023-06-24T10:03:34;22.70;64.10
46816;DHT22;32787;53.316;8.670;2023-06-24T10:06:01;22.70;63.50
46816;DHT22;32787;53.316;8.670;2023-06-24T10:08:29;23.10;61.20
46816;DHT22;32787;53.316;8.670;2023-06-24T10:10:55;23.20;61.60
46816;DHT22;32787;53.316;8.670;2023-06-24T10:13:21;23.20;59.50
46816;DHT22;32787;53.316;8.670;2023-06-24T10:15:48;23.30;60.60
46816;DHT22;32787;53.316;8.670;2023-06-24T10:18:37;23.10;61.10
46816;DHT22;32787;53.316;8.670;2023-06-24T10:21:05;23.20;62.70
46816;DHT22;32787;53.316;8.670;2023-06-24T10:23:41;23.30;61.20
46816;DHT22;32787;53.316;8.670;2023-06-24T10:26:09;23.50;60.00
46816;DHT22;32787;53.316;8.670;2023-06-24T10:34:59;23.70;62.80
46816;DHT22;32787;53.316;8.670;2023-06-24T10:37:18;23.70;61.90
46816;DHT22;32787;53.316;8.670;2023-06-24T10:40:02;23.70;61.50
46816;DHT22;32787;53.316;8.670;2023-06-24T10:42:40;23.80;59.70
46816;DHT22;32787;53.316;8.670;2023-06-24T10:47:35;23.70;61.00
46816;DHT22;32787;53.316;8.670;2023-06-24T10:50:02;23.90;60.10
46816;DHT22;32787;53.316;8.670;2023-06-24T10:52:27;23.90;59.40
46816;DHT22;32787;53.316;8.670;2023-06-24T10:54:53;23.70;62.10
46816;DHT22;32787;53.316;8.670;2023-06-24T10:57:24;24.10;61.10
46816;DHT22;32787;53.316;8.670;2023-06-24T10:59:52;24.40;58.10
46816;DHT22;32787;53.316;8.670;2023-06-24T11:02:19;24.50;59.40
46816;DHT22;32787;53.316;8.670;2023-06-24T11:04:47;24.70;61.40
46816;DHT22;32787;53.316;8.670;2023-06-24T11:07:13;24.70;57.80
46816;DHT22;32787;53.316;8.670;2023-06-24T11:09:42;24.80;60.20
46816;DHT22;32787;53.316;8.670;2023-06-24T11:12:10;25.00;58.50
46816;DHT22;32787;53.316;8.670;2023-06-24T11:14:38;25.40;55.80
46816;DHT22;32787;53.316;8.670;2023-06-24T11:17:04;25.70;55.10
46816;DHT22;32787;53.316;8.670;2023-06-24T11:19:30;26.80;52.20
46816;DHT22;32787;53.316;8.670;2023-06-24T11:22:00;28.10;49.10
46816;DHT22;32787;53.316;8.670;2023-06-24T11:24:26;29.30;45.40
46816;DHT22;32787;53.316;8.670;2023-06-24T11:26:52;29.70;44.80
46816;DHT22;32787;53.316;8.670;2023-06-24T11:29:18;30.00;44.50
46816;DHT22;32787;53.316;8.670;2023-06-24T11:31:45;30.20;44.00
46816;DHT22;32787;53.316;8.670;2023-06-24T11:34:10;30.70;42.90
46816;DHT22;32787;53.316;8.670;2023-06-24T11:36:36;29.90;43.50
46816;DHT22;32787;53.316;8.670;2023-06-24T11:39:02;29.00;46.30
46816;DHT22;32787;53.316;8.670;2023-06-24T11:41:28;28.30;47.60
46816;DHT22;32787;53.316;8.670;2023-06-24T11:43:54;28.10;48.80
46816;DHT22;32787;53.316;8.670;2023-06-24T11:46:29;27.50;51.90
46816;DHT22;32787;53.316;8.670;2023-06-24T11:49:07;26.80;50.30
46816;DHT22;32787;53.316;8.670;2023-06-24T11:51:36;26.60;53.30
46816;DHT22;32787;53.316;8.670;2023-06-24T11:54:04;26.70;52.50
46816;DHT22;32787;53.316;8.670;2023-06-24T11:56:39;27.00;55.90
46816;DHT22;32787;53.316;8.670;2023-06-24T11:59:18;27.00;50.80
46816;DHT22;32787;53.316;8.670;2023-06-24T12:01:45;26.70;53.10
46816;DHT22;32787;53.316;8.670;2023-06-24T12:04:14;26.50;51.00
46816;DHT22;32787;53.316;8.670;2023-06-24T12:06:44;26.60;51.50
46816;DHT22;32787;53.316;8.670;2023-06-24T12:09:10;27.50;55.40
46816;DHT22;32787;53.316;8.670;2023-06-24T12:11:36;27.80;50.60
46816;DHT22;32787;53.316;8.670;2023-06-24T12:14:03;28.00;49.90
46816;DHT22;32787;53.316;8.670;2023-06-24T12:16:29;28.60;45.60
46816;DHT22;32787;53.316;8.670;2023-06-24T12:18:55;28.40;47.60
46816;DHT22;32787;53.316;8.670;2023-06-24T12:21:21;27.80;48.20
46816;DHT22;32787;53.316;8.670;2023-06-24T12:23:47;27.60;51.90
46816;DHT22;32787;53.316;8.670;2023-06-24T12:26:13;27.20;48.70
46816;DHT22;32787;53.316;8.670;2023-06-24T12:28:38;27.20;51.90
46816;DHT22;32787;53.316;8.670;2023-06-24T12:31:04;27.30;52.60
46816;DHT22;32787;53.316;8.670;2023-06-24T12:33:30;27.40;49.10
46816;DHT22;32787;53.316;8.670;2023-06-24T12:35:56;27.70;50.20
46816;DHT22;32787;53.316;8.670;2023-06-24T12:38:22;28.70;46.30
46816;DHT22;32787;53.316;8.670;2023-06-24T12:40:48;28.40;46.70
46816;DHT22;32787;53.316;8.670;2023-06-24T12:43:14;28.40;47.00
46816;DHT22;32787;53.316;8.670;2023-06-24T12:45:41;30.20;44.60
46816;DHT22;32787;53.316;8.670;2023-06-24T12:48:13;32.00;43.30
46816;DHT22;32787;53.316;8.670;2023-06-24T12:50:38;33.20;37.00
46816;DHT22;32787;53.316;8.670;2023-06-24T12:53:04;33.00;37.90
46816;DHT22;32787;53.316;8.670;2023-06-24T12:55:30;32.90;39.20
46816;DHT22;32787;53.316;8.670;2023-06-24T12:57:56;32.10;37.50
46816;DHT22;32787;53.316;8.670;2023-06-24T13:00:23;30.50;42.10
46816;DHT22;32787;53.316;8.670;2023-06-24T13:02:49;29.90;44.40
46816;DHT22;32787;53.316;8.670;2023-06-24T13:05:15;29.40;45.90
46816;DHT22;32787;53.316;8.670;2023-06-24T13:07:41;29.00;46.40
46816;DHT22;32787;53.316;8.670;2023-06-24T13:10:07;28.10;49.00
46816;DHT22;32787;53.316;8.670;2023-06-24T13:12:34;27.60;48.80
46816;DHT22;32787;53.316;8.670;2023-06-24T13:14:59;27.10;50.60
46816;DHT22;32787;53.316;8.670;2023-06-24T13:17:25;26.40;51.90
46816;DHT22;32787;53.316;8.670;2023-06-24T13:19:51;26.20;52.20
46816;DHT22;32787;53.316;8.670;2023-06-24T13:22:18;26.00;55.90
46816;DHT22;32787;53.316;8.670;2023-06-24T13:24:44;26.40;55.50
46816;DHT22;32787;53.316;8.670;2023-06-24T13:27:10;26.30;54.50
46816;DHT22;32787;53.316;8.670;2023-06-24T13:29:36;26.50;52.80
46816;DHT22;32787;53.316;8.670;2023-06-24T13:32:02;27.70;51.50
46816;DHT22;32787;53.316;8.670;2023-06-24T13:34:28;29.60;45.40
46816;DHT22;32787;53.316;8.670;2023-06-24T13:36:53;31.40;43.10
46816;DHT22;32787;53.316;8.670;2023-06-24T13:39:19;32.80;41.30
46816;DHT22;32787;53.316;8.670;2023-06-24T13:41:49;33.70;38.10
46816;DHT22;32787;53.316;8.670;2023-06-24T13:44:15;33.90;38.00
46816;DHT22;32787;53.316;8.670;2023-06-24T13:46:41;33.40;39.70
46816;DHT22;32787;53.316;8.670;2023-06-24T13:49:06;31.70;39.20
46816;DHT22;32787;53.316;8.670;2023-06-24T13:51:32;29.80;43.10
46816;DHT22;32787;53.316;8.670;2023-06-24T13:53:58;29.50;45.40
46816;DHT22;32787;53.316;8.670;2023-06-24T13:56:24;29.80;46.40
46816;DHT22;32787;53.316;8.670;2023-06-24T13:58:51;30.80;45.50
46816;DHT22;32787;53.316;8.670;2023-06-24T14:01:17;32.60;42.30
46816;DHT22;32787;53.316;8.670;2023-06-24T14:03:43;33.70;37.20
46816;DHT22;32787;53.316;8.670;2023-06-24T14:06:09;34.10;37.00
46816;DHT22;32787;53.316;8.670;2023-06-24T14:08:35;33.70;37.90
46816;DHT22;32787;53.316;8.670;2023-06-24T14:11:02;33.30;37.70
46816;DHT22;32787;53.316;8.670;2023-06-24T14:13:28;31.60;39.90
46816;DHT22;32787;53.316;8.670;2023-06-24T14:15:55;31.20;39.70
46816;DHT22;32787;53.316;8.670;2023-06-24T14:18:20;31.50;40.30
46816;DHT22;32787;53.316;8.670;2023-06-24T14:20:46;32.80;40.10
46816;DHT22;32787;53.316;8.670;2023-06-24T14:23:12;32.50;38.40
46816;DHT22;32787;53.316;8.670;2023-06-24T14:25:38;31.40;41.40
46816;DHT22;32787;53.316;8.670;2023-06-24T14:28:05;30.40;44.90
46816;DHT22;32787;53.316;8.670;2023-06-24T14:30:31;31.20;43.90
46816;DHT22;32787;53.316;8.670;2023-06-24T14:32:56;32.00;43.10
46816;DHT22;32787;53.316;8.670;2023-06-24T14:35:22;31.20;41.50
46816;DHT22;32787;53.316;8.670;2023-06-24T14:37:48;30.90;43.80
46816;DHT22;32787;53.316;8.670;2023-06-24T14:40:13;31.80;42.00
46816;DHT22;32787;53.316;8.670;2023-06-24T14:42:39;33.30;38.50
46816;DHT22;32787;53.316;8.670;2023-06-24T14:45:05;33.70;40.30
46816;DHT22;32787;53.316;8.670;2023-06-24T14:47:30;33.40;40.20
46816;DHT22;32787;53.316;8.670;2023-06-24T14:49:57;31.90;38.30
46816;DHT22;32787;53.316;8.670;2023-06-24T14:52:23;30.40;42.20
46816;DHT22;32787;53.316;8.670;2023-06-24T14:54:49;29.30;45.80
46816;DHT22;32787;53.316;8.670;2023-06-24T14:57:14;28.80;46.60
46816;DHT22;32787;53.316;8.670;2023-06-24T14:59:41;28.30;50.50
46816;DHT22;32787;53.316;8.670;2023-06-24T15:02:07;27.90;51.40
46816;DHT22;32787;53.316;8.670;2023-06-24T15:04:32;27.50;49.90
46816;DHT22;32787;53.316;8.670;2023-06-24T15:06:59;27.30;51.60
46816;DHT22;32787;53.316;8.670;2023-06-24T15:09:25;27.20;51.20
46816;DHT22;32787;53.316;8.670;2023-06-24T15:11:51;27.40;52.20
46816;DHT22;32787;53.316;8.670;2023-06-24T15:14:16;27.50;50.00
46816;DHT22;32787;53.316;8.670;2023-06-24T15:16:42;27.40;52.20
46816;DHT22;32787;53.316;8.670;2023-06-24T15:19:08;27.40;51.20
46816;DHT22;32787;53.316;8.670;2023-06-24T15:21:33;27.20;50.50
46816;DHT22;32787;53.316;8.670;2023-06-24T15:23:59;27.50;51.80
46816;DHT22;32787;53.316;8.670;2023-06-24T15:26:25;27.80;53.10
46816;DHT22;32787;53.316;8.670;2023-06-24T15:28:50;28.20;52.60
46816;DHT22;32787;53.316;8.670;2023-06-24T15:31:16;28.00;52.00
46816;DHT22;32787;53.316;8.670;2023-06-24T15:33:41;27.80;50.30
46816;DHT22;32787;53.316;8.670;2023-06-24T15:36:07;27.80;51.00
46816;DHT22;32787;53.316;8.670;2023-06-24T15:38:33;27.80;50.30
46816;DHT22;32787;53.316;8.670;2023-06-24T15:40:59;28.00;49.70
46816;DHT22;32787;53.316;8.670;2023-06-24T15:43:24;27.70;50.70
46816;DHT22;32787;53.316;8.670;2023-06-24T15:45:50;27.80;49.50
46816;DHT22;32787;53.316;8.670;2023-06-24T15:48:16;28.10;50.50
46816;DHT22;32787;53.316;8.670;2023-06-24T15:50:42;28.00;50.80